createdAt,value
2023-06-21T00:00:36.907Z,9.13
2023-06-21T00:03:06.002Z,9.48
2023-06-21T00:05:35.260Z,8.32
2023-06-21T00:08:04.887Z,8.63
2023-06-21T00:10:33.843Z,8.93
2023-06-21T00:13:09.894Z,9.10
2023-06-21T00:15:38.585Z,9.32
2023-06-21T00:18:10.466Z,9.10
2023-06-21T00:20:39.592Z,11.50
2023-06-21T00:23:09.869Z,21.55
2023-06-21T00:25:39.658Z,13.45
2023-06-21T00:28:08.287Z,14.90
2023-06-21T00:30:37.007Z,14.25
2023-06-21T00:33:05.757Z,14.35
2023-06-21T00:35:34.339Z,12.60
2023-06-21T00:38:02.625Z,9.52
2023-06-21T00:40:35.618Z,9.40
2023-06-21T00:43:05.066Z,9.40
2023-06-21T00:45:39.474Z,8.68
2023-06-21T00:48:07.893Z,8.93
2023-06-21T00:50:36.025Z,9.52
2023-06-21T00:53:04.366Z,9.70
2023-06-21T00:55:35.125Z,10.05
2023-06-21T00:58:04.334Z,9.48
2023-06-21T01:00:32.670Z,8.60
2023-06-21T01:03:01.259Z,10.60
2023-06-21T01:05:31.740Z,10.15
2023-06-21T01:08:07.223Z,9.77
2023-06-21T01:10:50.728Z,10.15
2023-06-21T01:13:30.552Z,9.60
2023-06-21T01:16:06.336Z,9.55
2023-06-21T01:18:36.450Z,10.18
2023-06-21T01:21:07.209Z,10.40
2023-06-21T01:23:52.250Z,10.15
2023-06-21T01:26:44.597Z,10.23
2023-06-21T01:29:16.690Z,9.40
2023-06-21T01:31:46.708Z,9.65
2023-06-21T01:34:15.792Z,10.20
2023-06-21T01:36:44.534Z,10.00
2023-06-21T01:39:12.890Z,9.80
2023-06-21T01:41:42.192Z,9.18
2023-06-21T01:44:11.847Z,9.25
2023-06-21T01:46:42.405Z,9.80
2023-06-21T01:49:11.711Z,8.73
2023-06-21T01:51:43.987Z,8.55
2023-06-21T01:54:13.004Z,9.40
2023-06-21T01:56:44.184Z,9.82
2023-06-21T01:59:12.494Z,9.57
2023-06-21T02:01:51.670Z,9.15
2023-06-21T02:04:21.147Z,9.75
2023-06-21T02:06:51.704Z,9.30
2023-06-21T02:09:21.671Z,9.85
2023-06-21T02:11:50.813Z,9.80
2023-06-21T02:14:19.579Z,9.77
2023-06-21T02:16:50.964Z,9.63
2023-06-21T02:19:20.199Z,8.95
2023-06-21T02:21:48.568Z,9.32
2023-06-21T02:24:16.997Z,9.57
2023-06-21T02:26:45.407Z,10.02
2023-06-21T02:29:13.825Z,11.07
2023-06-21T02:31:42.155Z,9.65
2023-06-21T02:34:11.946Z,10.25
2023-06-21T02:36:40.831Z,9.98
2023-06-21T02:39:09.289Z,10.40
2023-06-21T02:41:37.351Z,9.27
2023-06-21T02:44:06.047Z,10.13
2023-06-21T02:46:34.893Z,9.90
2023-06-21T02:49:03.405Z,10.45
2023-06-21T02:51:33.116Z,10.65
2023-06-21T02:54:01.250Z,10.20
2023-06-21T02:56:31.628Z,10.43
2023-06-21T02:58:59.935Z,10.45
2023-06-21T03:01:28.192Z,10.00
2023-06-21T03:03:56.556Z,9.70
2023-06-21T03:06:24.909Z,9.35
2023-06-21T03:08:54.698Z,10.65
2023-06-21T03:11:22.921Z,9.40
2023-06-21T03:13:51.153Z,10.88
2023-06-21T03:16:19.498Z,10.13
2023-06-21T03:18:47.669Z,9.98
2023-06-21T03:21:17.903Z,9.48
2023-06-21T03:23:46.211Z,9.82
2023-06-21T03:26:15.996Z,11.70
2023-06-21T03:28:44.238Z,15.00
2023-06-21T03:31:12.656Z,18.27
2023-06-21T03:33:40.868Z,17.30
2023-06-21T03:36:09.131Z,14.23
2023-06-21T03:38:37.393Z,10.38
2023-06-21T03:41:05.578Z,11.32
2023-06-21T03:43:35.236Z,8.75
2023-06-21T03:46:04.035Z,7.82
2023-06-21T03:48:32.077Z,7.80
2023-06-21T03:51:01.013Z,8.13
2023-06-21T03:53:29.428Z,8.88
2023-06-21T03:55:57.465Z,9.45
2023-06-21T03:58:25.614Z,9.80
2023-06-21T04:00:55.063Z,9.38
2023-06-21T04:03:23.281Z,8.52
2023-06-21T04:05:51.643Z,8.27
2023-06-21T04:08:19.755Z,8.93
2023-06-21T04:10:47.989Z,8.88
2023-06-21T04:13:16.206Z,8.23
2023-06-21T04:15:44.521Z,8.10
2023-06-21T04:18:13.965Z,8.00
2023-06-21T04:20:42.134Z,8.68
2023-06-21T04:23:10.272Z,8.60
2023-06-21T04:25:38.354Z,9.07
2023-06-21T04:28:06.556Z,8.27
2023-06-21T04:30:35.967Z,8.18
2023-06-21T04:33:04.606Z,8.07
2023-06-21T04:35:34.606Z,8.02
2023-06-21T04:38:02.907Z,9.55
2023-06-21T04:40:32.086Z,10.40
2023-06-21T04:43:02.619Z,10.45
2023-06-21T04:45:33.106Z,9.95
2023-06-21T04:48:01.708Z,8.40
2023-06-21T04:50:30.764Z,8.65
2023-06-21T04:53:00.981Z,8.43
2023-06-21T04:55:30.349Z,8.35
2023-06-21T04:58:00.699Z,8.70
2023-06-21T05:00:29.701Z,8.02
2023-06-21T05:02:58.396Z,8.40
2023-06-21T05:05:26.826Z,8.77
2023-06-21T05:07:55.141Z,9.27
2023-06-21T05:10:25.432Z,9.20
2023-06-21T05:12:54.035Z,9.35
2023-06-21T05:15:22.560Z,8.60
2023-06-21T05:17:50.809Z,7.65
2023-06-21T05:20:20.954Z,7.72
2023-06-21T05:22:50.376Z,7.90
2023-06-21T05:25:18.614Z,7.75
2023-06-21T05:27:48.317Z,7.88
2023-06-21T05:30:16.988Z,7.47
2023-06-21T05:32:45.142Z,8.00
2023-06-21T05:35:13.387Z,7.65
2023-06-21T05:37:41.510Z,7.93
2023-06-21T05:40:12.583Z,8.25
2023-06-21T05:42:40.883Z,7.72
2023-06-21T05:45:11.782Z,7.68
2023-06-21T05:47:40.365Z,7.53
2023-06-21T05:50:09.251Z,7.40
2023-06-21T05:52:37.857Z,8.00
2023-06-21T05:55:06.641Z,7.82
2023-06-21T05:57:34.964Z,7.90
2023-06-21T06:00:04.831Z,8.30
2023-06-21T06:02:35.350Z,8.48
2023-06-21T06:05:03.587Z,6.95
2023-06-21T06:07:32.109Z,7.47
2023-06-21T06:10:00.547Z,7.13
2023-06-21T06:12:28.710Z,6.60
2023-06-21T06:14:57.356Z,7.40
2023-06-21T06:17:26.150Z,7.50
2023-06-21T06:19:56.143Z,7.18
2023-06-21T06:22:25.260Z,6.80
2023-06-21T06:24:54.251Z,8.80
2023-06-21T06:27:22.610Z,9.48
2023-06-21T06:29:53.380Z,7.07
2023-06-21T06:32:21.892Z,6.55
2023-06-21T06:34:50.853Z,9.18
2023-06-21T06:37:23.809Z,6.55
2023-06-21T06:39:55.194Z,7.18
2023-06-21T06:42:23.768Z,9.68
2023-06-21T06:44:54.569Z,7.63
2023-06-21T06:47:23.527Z,8.13
2023-06-21T06:49:52.700Z,8.65
2023-06-21T06:52:22.975Z,8.02
2023-06-21T06:54:52.353Z,7.55
2023-06-21T06:57:33.944Z,7.35
2023-06-21T07:00:10.611Z,7.50
2023-06-21T07:02:39.183Z,7.20
2023-06-21T07:05:08.178Z,7.13
2023-06-21T07:07:38.807Z,7.05
2023-06-21T07:10:08.172Z,7.32
2023-06-21T07:12:36.446Z,7.05
2023-06-21T07:15:05.064Z,7.68
2023-06-21T07:17:33.498Z,8.10
2023-06-21T07:20:01.848Z,7.63
2023-06-21T07:22:30.178Z,7.05
2023-06-21T07:25:00.195Z,6.65
2023-06-21T07:27:29.039Z,6.25
2023-06-21T07:29:57.972Z,6.35
2023-06-21T07:32:31.767Z,6.82
2023-06-21T07:35:00.407Z,7.63
2023-06-21T07:37:29.481Z,7.10
2023-06-21T07:39:59.267Z,7.05
2023-06-21T07:42:27.856Z,7.07
2023-06-21T07:44:57.243Z,6.60
2023-06-21T07:47:25.900Z,6.68
2023-06-21T07:49:54.623Z,6.60
2023-06-21T07:52:23.037Z,6.50
2023-06-21T07:54:51.425Z,6.68
2023-06-21T07:57:21.671Z,6.53
2023-06-21T07:59:50.088Z,5.82
2023-06-21T08:02:19.747Z,6.03
2023-06-21T08:04:48.619Z,6.13
2023-06-21T08:07:18.206Z,6.07
2023-06-21T08:09:46.534Z,6.20
2023-06-21T08:12:15.425Z,5.35
2023-06-21T08:14:45.800Z,6.25
2023-06-21T08:17:15.995Z,5.70
2023-06-21T08:19:44.590Z,6.93
2023-06-21T08:22:13.048Z,6.22
2023-06-21T08:24:41.393Z,6.97
2023-06-21T08:27:10.794Z,6.63
2023-06-21T08:29:39.231Z,6.25
2023-06-21T08:32:09.432Z,6.10
2023-06-21T08:34:37.862Z,5.75
2023-06-21T08:37:07.369Z,6.07
2023-06-21T08:39:35.654Z,5.32
2023-06-21T08:42:04.176Z,5.72
2023-06-21T08:44:36.058Z,5.90
2023-06-21T08:47:09.373Z,6.47
2023-06-21T08:49:42.023Z,7.22
2023-06-21T08:52:13.894Z,7.93
2023-06-21T08:54:46.084Z,5.97
2023-06-21T08:57:20.834Z,6.38
2023-06-21T08:59:53.326Z,9.45
2023-06-21T09:02:35.438Z,5.20
2023-06-21T09:05:09.045Z,7.03
2023-06-21T09:07:39.264Z,5.95
2023-06-21T09:10:10.808Z,5.80
2023-06-21T09:12:42.060Z,8.75
2023-06-21T09:15:12.796Z,5.72
2023-06-21T09:17:46.652Z,5.35
2023-06-21T09:20:16.424Z,4.80
2023-06-21T09:22:47.595Z,4.35
2023-06-21T09:25:16.347Z,4.30
2023-06-21T09:27:44.854Z,4.10
2023-06-21T09:32:47.406Z,4.45
2023-06-21T09:35:15.802Z,4.70
2023-06-21T09:37:45.869Z,4.80
2023-06-21T09:40:15.881Z,4.25
2023-06-21T09:42:46.294Z,4.75
2023-06-21T09:45:19.577Z,4.65
2023-06-21T09:47:49.782Z,3.92
2023-06-21T09:50:18.056Z,3.63
2023-06-21T09:52:46.632Z,3.65
2023-06-21T09:55:15.703Z,3.75
2023-06-21T09:57:44.400Z,4.13
2023-06-21T10:00:14.643Z,4.28
2023-06-21T10:02:43.545Z,3.90
2023-06-21T10:05:20.095Z,4.00
2023-06-21T10:07:49.141Z,4.18
2023-06-21T10:10:21.581Z,4.00
2023-06-21T10:12:55.719Z,3.92
2023-06-21T10:15:25.951Z,4.18
2023-06-21T10:20:33.499Z,4.40
2023-06-21T10:23:04.924Z,4.10
2023-06-21T10:25:33.956Z,3.85
2023-06-21T10:28:03.801Z,3.70
2023-06-21T10:30:50.796Z,4.32
2023-06-21T10:33:19.658Z,4.50
2023-06-21T10:35:53.991Z,7.60
2023-06-21T10:38:38.824Z,6.05
2023-06-21T10:41:07.956Z,4.60
2023-06-21T10:43:46.072Z,5.13
2023-06-21T10:46:17.033Z,5.97
2023-06-21T10:48:50.028Z,5.13
2023-06-21T10:51:25.591Z,3.90
2023-06-21T10:53:57.604Z,4.63
2023-06-21T10:56:27.260Z,5.30
2023-06-21T10:58:55.756Z,5.38
2023-06-21T11:01:24.977Z,4.65
2023-06-21T11:03:55.839Z,4.28
2023-06-21T11:06:34.097Z,4.57
2023-06-21T11:09:11.682Z,5.05
2023-06-21T11:11:44.605Z,5.10
2023-06-21T11:14:13.888Z,4.13
2023-06-21T11:16:42.100Z,4.07
2023-06-21T11:19:14.579Z,4.43
2023-06-21T11:21:50.807Z,4.10
2023-06-21T11:24:20.903Z,3.97
2023-06-21T11:26:59.842Z,5.10
2023-06-21T11:29:30.751Z,4.50
2023-06-21T11:32:17.950Z,4.20
2023-06-21T11:34:57.814Z,4.63
2023-06-21T11:37:42.358Z,5.07
2023-06-21T11:40:11.814Z,4.28
2023-06-21T11:42:44.703Z,4.60
2023-06-21T11:45:29.302Z,6.10
2023-06-21T11:48:02.170Z,4.18
2023-06-21T11:50:36.177Z,4.30
2023-06-21T11:53:19.914Z,4.32
2023-06-21T11:55:49.031Z,5.10
2023-06-21T11:58:17.517Z,4.80
2023-06-21T12:00:47.105Z,4.03
2023-06-21T12:03:16.465Z,4.25
2023-06-21T12:05:46.581Z,4.70
2023-06-21T12:08:18.238Z,4.57
2023-06-21T12:10:47.438Z,4.32
2023-06-21T12:13:16.633Z,4.55
2023-06-21T12:15:50.038Z,4.28
2023-06-21T12:18:18.640Z,4.28
2023-06-21T12:20:46.814Z,4.20
2023-06-21T12:23:16.438Z,4.63
2023-06-21T12:25:46.219Z,4.53
2023-06-21T12:28:16.052Z,4.35
2023-06-21T12:30:52.141Z,4.93
2023-06-21T12:33:20.833Z,4.47
2023-06-21T12:35:49.001Z,4.50
2023-06-21T12:38:19.672Z,4.28
2023-06-21T12:40:55.368Z,3.90
2023-06-21T12:43:34.966Z,4.13
2023-06-21T12:46:05.190Z,4.00
2023-06-21T12:48:33.683Z,4.40
2023-06-21T12:51:02.121Z,4.47
2023-06-21T12:53:41.240Z,5.70
2023-06-21T12:56:10.878Z,4.47
2023-06-21T12:58:39.857Z,4.50
2023-06-21T13:01:08.550Z,5.30
2023-06-21T13:03:37.262Z,4.75
2023-06-21T13:06:05.850Z,5.03
2023-06-21T13:08:36.358Z,5.00
2023-06-21T13:11:06.213Z,4.55
2023-06-21T13:13:34.448Z,4.15
2023-06-21T13:16:03.820Z,4.70
2023-06-21T13:18:34.934Z,4.80
2023-06-21T13:21:03.484Z,3.97
2023-06-21T13:23:31.562Z,4.70
2023-06-21T13:26:01.217Z,4.68
2023-06-21T13:28:29.487Z,4.25
2023-06-21T13:30:58.040Z,4.32
2023-06-21T13:33:26.495Z,3.50
2023-06-21T13:35:55.142Z,4.43
2023-06-21T13:38:23.853Z,4.25
2023-06-21T13:40:52.494Z,4.35
2023-06-21T13:43:22.031Z,3.92
2023-06-21T13:45:50.235Z,4.32
2023-06-21T13:48:18.972Z,5.60
2023-06-21T13:50:47.136Z,4.35
2023-06-21T13:53:15.281Z,4.70
2023-06-21T13:55:43.405Z,4.63
2023-06-21T13:58:11.500Z,5.97
2023-06-21T14:00:41.004Z,5.10
2023-06-21T14:03:09.363Z,4.93
2023-06-21T14:05:37.901Z,4.70
2023-06-21T14:08:06.553Z,4.15
2023-06-21T14:10:34.866Z,3.90
2023-06-21T14:13:03.194Z,4.68
2023-06-21T14:15:31.912Z,4.85
2023-06-21T14:18:04.687Z,5.25
2023-06-21T14:20:34.140Z,9.85
2023-06-21T14:23:02.457Z,4.65
2023-06-21T14:25:31.656Z,4.03
2023-06-21T14:28:00.058Z,4.10
2023-06-21T14:30:29.244Z,5.00
2023-06-21T14:32:57.862Z,13.45
2023-06-21T14:35:27.927Z,4.93
2023-06-21T14:37:58.859Z,6.22
2023-06-21T14:40:27.748Z,5.25
2023-06-21T14:42:57.436Z,4.22
2023-06-21T14:45:32.387Z,3.70
2023-06-21T14:48:01.922Z,3.50
2023-06-21T14:50:32.382Z,3.60
2023-06-21T14:53:00.758Z,4.40
2023-06-21T14:55:29.984Z,3.20
2023-06-21T14:57:58.447Z,4.28
2023-06-21T15:00:27.421Z,4.20
2023-06-21T15:02:56.590Z,4.22
2023-06-21T15:05:25.357Z,4.43
2023-06-21T15:07:55.053Z,4.35
2023-06-21T15:10:23.543Z,4.43
2023-06-21T15:13:01.494Z,4.28
2023-06-21T15:15:31.612Z,5.38
2023-06-21T15:18:00.961Z,4.50
2023-06-21T15:20:29.510Z,4.40
2023-06-21T15:22:59.539Z,8.07
2023-06-21T15:25:28.177Z,4.93
2023-06-21T15:27:56.881Z,6.20
2023-06-21T15:30:25.205Z,4.60
2023-06-21T15:32:54.964Z,5.28
2023-06-21T15:35:23.280Z,5.78
2023-06-21T15:37:52.082Z,4.78
2023-06-21T15:40:21.783Z,4.82
2023-06-21T15:42:50.002Z,4.50
2023-06-21T15:45:18.339Z,4.30
2023-06-21T15:47:47.437Z,3.95
2023-06-21T15:50:16.184Z,4.03
2023-06-21T15:52:44.364Z,4.28
2023-06-21T15:55:12.500Z,5.40
2023-06-21T15:57:42.655Z,4.63
2023-06-21T16:00:11.877Z,4.03
2023-06-21T16:02:40.353Z,3.80
2023-06-21T16:05:11.352Z,4.50
2023-06-21T16:07:39.841Z,3.35
2023-06-21T16:10:09.011Z,4.35
2023-06-21T16:12:43.373Z,4.95
2023-06-21T16:15:12.882Z,4.57
2023-06-21T16:17:43.013Z,3.72
2023-06-21T16:20:12.315Z,4.45
2023-06-21T16:22:40.751Z,4.75
2023-06-21T16:25:09.704Z,5.75
2023-06-21T16:27:38.164Z,4.45
2023-06-21T16:30:09.302Z,4.55
2023-06-21T16:32:37.909Z,4.57
2023-06-21T16:35:09.879Z,5.18
2023-06-21T16:37:39.296Z,4.22
2023-06-21T16:40:10.223Z,4.95
2023-06-21T16:42:38.491Z,5.93
2023-06-21T16:45:11.686Z,5.40
2023-06-21T16:47:39.907Z,7.00
2023-06-21T16:50:08.797Z,6.38
2023-06-21T16:52:37.073Z,5.35
2023-06-21T16:55:07.001Z,5.43
2023-06-21T16:57:35.595Z,5.82
2023-06-21T17:00:04.296Z,4.30
2023-06-21T17:02:35.483Z,4.20
2023-06-21T17:05:03.931Z,4.57
2023-06-21T17:07:33.288Z,4.75
2023-06-21T17:10:01.573Z,5.32
2023-06-21T17:12:29.674Z,4.63
2023-06-21T17:14:59.621Z,4.50
2023-06-21T17:17:30.677Z,4.97
2023-06-21T17:20:00.426Z,4.85
2023-06-21T17:22:28.812Z,6.50
2023-06-21T17:24:58.176Z,5.18
2023-06-21T17:27:26.509Z,4.85
2023-06-21T17:29:54.907Z,4.80
2023-06-21T17:32:23.185Z,4.60
2023-06-21T17:34:53.926Z,4.60
2023-06-21T17:37:23.592Z,5.65
2023-06-21T17:39:51.961Z,5.47
2023-06-21T17:42:20.220Z,4.82
2023-06-21T17:44:48.507Z,5.55
2023-06-21T17:47:17.235Z,5.50
2023-06-21T17:49:45.752Z,5.28
2023-06-21T17:52:14.079Z,5.35
2023-06-21T17:54:43.821Z,7.53
2023-06-21T17:57:12.147Z,7.80
2023-06-21T17:59:40.776Z,6.45
2023-06-21T18:02:09.204Z,7.18
2023-06-21T18:04:37.736Z,6.85
2023-06-21T18:07:06.621Z,7.30
2023-06-21T18:09:35.180Z,8.20
2023-06-21T18:12:06.954Z,8.27
2023-06-21T18:14:35.318Z,6.88
2023-06-21T18:17:06.655Z,7.18
2023-06-21T18:19:35.805Z,6.63
2023-06-21T18:22:12.912Z,8.65
2023-06-21T18:24:42.271Z,8.30
2023-06-21T18:27:12.951Z,8.13
2023-06-21T18:29:53.430Z,7.38
2023-06-21T18:32:30.056Z,8.75
2023-06-21T18:34:59.379Z,7.13
2023-06-21T18:37:28.288Z,7.47
2023-06-21T18:39:59.805Z,6.88
2023-06-21T18:42:30.819Z,7.47
2023-06-21T18:44:59.608Z,7.22
2023-06-21T18:47:31.821Z,7.43
2023-06-21T18:50:03.238Z,7.93
2023-06-21T18:52:31.877Z,8.57
2023-06-21T18:55:00.566Z,7.90
2023-06-21T18:57:31.042Z,9.02
2023-06-21T19:00:02.230Z,8.20
2023-06-21T19:02:30.893Z,7.85
2023-06-21T19:05:02.849Z,6.68
2023-06-21T19:07:35.872Z,8.35
2023-06-21T19:10:05.760Z,9.07
2023-06-21T19:12:36.647Z,11.73
2023-06-21T19:15:07.175Z,7.40
2023-06-21T19:17:36.589Z,6.47
2023-06-21T19:20:05.713Z,8.07
2023-06-21T19:22:39.265Z,8.23
2023-06-21T19:25:08.559Z,9.00
2023-06-21T19:27:40.607Z,6.78
2023-06-21T19:30:10.198Z,6.93
2023-06-21T19:32:39.957Z,8.00
2023-06-21T19:35:12.340Z,8.32
2023-06-21T19:37:40.763Z,9.43
2023-06-21T19:40:12.826Z,9.88
2023-06-21T19:42:44.964Z,11.02
2023-06-21T19:45:16.668Z,10.23
2023-06-21T19:47:46.210Z,10.70
2023-06-21T19:50:15.319Z,9.77
2023-06-21T19:52:45.863Z,10.35
2023-06-21T19:55:15.861Z,10.63
2023-06-21T19:57:46.011Z,12.98
2023-06-21T20:00:16.467Z,12.50
2023-06-21T20:02:45.447Z,12.20
2023-06-21T20:05:14.672Z,12.48
2023-06-21T20:07:43.355Z,14.85
2023-06-21T20:10:12.765Z,16.95
2023-06-21T20:12:41.342Z,13.15
2023-06-21T20:15:12.555Z,11.05
2023-06-21T20:17:40.715Z,10.90
2023-06-21T20:20:10.933Z,10.65
2023-06-21T20:22:41.189Z,10.85
2023-06-21T20:25:10.554Z,10.70
2023-06-21T20:27:38.709Z,11.30
2023-06-21T20:30:08.056Z,10.20
2023-06-21T20:32:37.756Z,10.13
2023-06-21T20:35:06.860Z,7.82
2023-06-21T20:37:35.270Z,7.88
2023-06-21T20:40:04.383Z,7.90
2023-06-21T20:42:32.619Z,7.40
2023-06-21T20:45:02.305Z,6.05
2023-06-21T20:47:30.773Z,7.45
2023-06-21T20:50:00.389Z,6.43
2023-06-21T20:52:29.086Z,6.93
2023-06-21T20:54:57.722Z,6.90
2023-06-21T20:57:25.983Z,6.45
2023-06-21T20:59:54.276Z,7.10
2023-06-21T21:02:22.523Z,6.15
2023-06-21T21:04:52.656Z,6.18
2023-06-21T21:07:22.133Z,7.07
2023-06-21T21:09:50.555Z,6.72
2023-06-21T21:12:18.837Z,6.90
2023-06-21T21:14:47.083Z,6.72
2023-06-21T21:17:15.179Z,6.68
2023-06-21T21:19:43.534Z,6.40
2023-06-21T21:22:15.343Z,7.05
2023-06-21T21:24:45.239Z,7.00
2023-06-21T21:27:13.923Z,6.90
2023-06-21T21:29:42.005Z,6.95
2023-06-21T21:32:10.810Z,7.30
2023-06-21T21:34:38.972Z,8.23
2023-06-21T21:37:07.671Z,11.70
2023-06-21T21:39:36.419Z,9.95
2023-06-21T21:42:07.614Z,8.95
2023-06-21T21:44:35.765Z,8.00
2023-06-21T21:47:03.882Z,8.07
2023-06-21T21:49:32.531Z,7.85
2023-06-21T21:52:00.686Z,9.50
2023-06-21T21:54:28.809Z,9.75
2023-06-21T21:56:56.952Z,8.65
2023-06-21T21:59:26.394Z,8.85
2023-06-21T22:01:54.578Z,8.80
2023-06-21T22:04:22.724Z,8.85
2023-06-21T22:06:50.888Z,8.60
2023-06-21T22:09:19.114Z,8.43
2023-06-21T22:11:47.230Z,8.07
2023-06-21T22:14:16.566Z,8.02
2023-06-21T22:16:50.969Z,8.48
2023-06-21T22:19:19.834Z,8.20
2023-06-21T22:21:53.813Z,7.88
2023-06-21T22:24:23.194Z,8.30
2023-06-21T22:26:51.837Z,8.82
2023-06-21T22:29:21.288Z,8.10
2023-06-21T22:31:51.428Z,8.35
2023-06-21T22:34:20.918Z,8.90
2023-06-21T22:36:49.440Z,8.70
2023-06-21T22:39:17.681Z,8.45
2023-06-21T22:41:45.916Z,8.00
2023-06-21T22:44:14.686Z,8.75
2023-06-21T22:46:43.580Z,8.75
2023-06-21T22:49:13.289Z,8.75
2023-06-21T22:51:41.531Z,8.80
2023-06-21T22:54:12.254Z,8.93
2023-06-21T22:56:40.694Z,8.55
2023-06-21T22:59:09.056Z,8.38
2023-06-21T23:01:37.464Z,8.93
2023-06-21T23:04:06.411Z,8.85
2023-06-21T23:06:36.362Z,8.38
2023-06-21T23:09:05.067Z,9.13
2023-06-21T23:11:33.396Z,8.32
2023-06-21T23:14:01.879Z,8.57
2023-06-21T23:16:30.207Z,8.38
2023-06-21T23:18:59.653Z,9.02
2023-06-21T23:21:27.743Z,8.95
2023-06-21T23:23:57.389Z,7.90
2023-06-21T23:26:27.132Z,7.78
2023-06-21T23:28:56.932Z,7.65
2023-06-21T23:31:25.676Z,8.20
2023-06-21T23:33:53.903Z,8.65
2023-06-21T23:36:23.834Z,8.25
2023-06-21T23:38:56.015Z,8.10
2023-06-21T23:41:26.466Z,8.45
2023-06-21T23:43:59.700Z,8.38
2023-06-21T23:46:30.834Z,8.13
2023-06-21T23:49:00.067Z,8.45
2023-06-21T23:51:29.109Z,8.90
2023-06-21T23:53:57.546Z,9.40
2023-06-21T23:56:27.792Z,10.73
2023-06-21T23:58:56.507Z,12.40
